Time;durP1;ratioP1;P1;durP2;ratioP2;P2;SDS_P1;SDS_P2;PMS_P1;PMS_P2;Temp;Humidity;BMP_temperature;BMP_pressure;BME280_temperature;BME280_humidity;BME280_pressure;Samples;Min_cycle;Max_cycle;Signal;HPM_P1;HPM_P2
2024/01/19 00:00:38;;;;;;;1999.90;999.90;;;0.50;99.90;;;;;;5047293;28;20033;-89
2024/01/19 00:03:04;;;;;;;104.40;99.72;;;0.50;99.90;;;;;;5026574;28;20044;-88
2024/01/19 00:05:30;;;;;;;37.70;35.60;;;0.50;99.90;;;;;;5033083;28;20036;-89
2024/01/19 00:07:56;;;;;;;82.15;78.53;;;0.50;99.90;;;;;;5032359;28;20040;-89
2024/01/19 00:10:22;;;;;;;569.78;315.83;;;0.50;99.90;;;;;;5024829;28;20123;-89
2024/01/19 00:12:48;;;;;;;97.68;93.15;;;0.60;99.90;;;;;;5037965;28;20072;-89
2024/01/19 00:15:13;;;;;;;165.85;158.00;;;0.70;99.90;;;;;;5031480;28;20044;-89
2024/01/19 00:17:39;;;;;;;116.88;111.53;;;0.80;99.90;;;;;;5065483;28;20045;-86
2024/01/19 00:20:09;;;;;;;273.27;258.17;;;1.00;99.90;;;;;;5029624;28;20937;-89
2024/01/19 00:22:34;;;;;;;56.65;54.17;;;1.10;99.90;;;;;;5045460;28;20044;-88
2024/01/19 00:25:00;;;;;;;81.25;77.55;;;1.20;99.90;;;;;;5047995;28;20518;-87
2024/01/19 00:27:26;;;;;;;70.43;67.25;;;1.10;99.90;;;;;;5045753;28;20032;-88
2024/01/19 00:29:51;;;;;;;39.30;37.35;;;1.10;99.90;;;;;;5033567;28;20037;-89
2024/01/19 00:32:17;;;;;;;60.35;57.55;;;1.10;99.90;;;;;;5031503;28;20068;-88
2024/01/19 00:34:43;;;;;;;72.55;69.15;;;1.10;99.90;;;;;;5051916;28;20033;-90
2024/01/19 00:37:08;;;;;;;245.77;232.57;;;1.10;99.90;;;;;;5032523;28;20404;-86
2024/01/19 00:39:34;;;;;;;135.50;129.43;;;1.20;99.90;;;;;;5049223;28;20613;-88
2024/01/19 00:42:00;;;;;;;134.18;127.22;;;1.30;99.90;;;;;;5048353;28;20040;-86
2024/01/19 00:44:25;;;;;;;57.60;54.80;;;1.20;99.90;;;;;;5049492;28;20072;-91
2024/01/19 00:46:51;;;;;;;89.32;84.90;;;1.20;99.90;;;;;;5050847;28;20028;-90
2024/01/19 00:49:17;;;;;;;704.05;578.60;;;1.10;99.90;;;;;;5046072;28;20048;-86
2024/01/19 00:51:43;;;;;;;92.63;88.47;;;1.10;99.90;;;;;;5052253;28;20094;-90
2024/01/19 00:54:09;;;;;;;121.93;116.32;;;1.00;99.90;;;;;;5055115;28;20037;-90
2024/01/19 00:56:35;;;;;;;122.13;117.05;;;1.00;99.90;;;;;;5033592;28;20048;-91
2024/01/19 00:59:01;;;;;;;119.00;113.68;;;0.90;99.90;;;;;;5033259;28;20052;-90
2024/01/19 01:01:26;;;;;;;148.82;142.68;;;0.90;99.90;;;;;;5066883;28;20499;-89
2024/01/19 01:03:52;;;;;;;138.57;132.73;;;0.80;99.90;;;;;;5046563;28;20049;-89
2024/01/19 01:06:18;;;;;;;173.98;166.80;;;0.80;99.90;;;;;;5030431;28;20068;-88
2024/01/19 01:08:43;;;;;;;155.85;149.27;;;0.70;99.90;;;;;;5027517;28;20040;-88
2024/01/19 01:11:09;;;;;;;74.32;71.07;;;0.70;99.90;;;;;;5026559;28;20037;-87
2024/01/19 01:13:35;;;;;;;68.50;65.45;;;0.60;99.90;;;;;;5046182;28;20123;-89
2024/01/19 01:16:01;;;;;;;78.25;74.93;;;0.50;99.90;;;;;;5050987;28;20051;-89
2024/01/19 01:18:27;;;;;;;89.78;86.10;;;0.40;99.90;;;;;;5030276;28;20044;-87
2024/01/19 01:20:53;;;;;;;58.85;56.15;;;0.30;99.90;;;;;;5033316;28;20413;-89
2024/01/19 01:23:19;;;;;;;52.20;49.80;;;0.20;99.90;;;;;;5032594;28;20044;-88
2024/01/19 01:25:44;;;;;;;56.92;54.33;;;0.20;99.90;;;;;;5027828;28;20119;-89
2024/01/19 01:28:10;;;;;;;34.97;33.05;;;0.10;99.90;;;;;;5030788;28;20085;-89
2024/01/19 01:30:37;;;;;;;46.38;44.05;;;0.00;99.90;;;;;;5030165;28;20116;-89
2024/01/19 01:33:03;;;;;;;67.00;63.95;;;-0.10;99.90;;;;;;5045677;28;20500;-89
2024/01/19 01:35:29;;;;;;;46.58;44.45;;;-0.20;99.90;;;;;;5050497;28;20041;-90
2024/01/19 01:37:55;;;;;;;69.85;66.70;;;-0.30;99.90;;;;;;5034392;28;20114;-90
2024/01/19 01:40:20;;;;;;;59.30;56.67;;;-0.30;99.90;;;;;;5033387;28;20194;-91
2024/01/19 01:42:46;;;;;;;43.92;41.75;;;-0.40;99.90;;;;;;5047069;28;20120;-90
2024/01/19 01:45:12;;;;;;;59.92;56.80;;;-0.50;99.90;;;;;;5048781;28;20113;-89
2024/01/19 01:47:37;;;;;;;67.68;64.28;;;-0.60;99.90;;;;;;5035447;28;20047;-92
2024/01/19 01:50:04;;;;;;;64.18;61.28;;;-0.60;99.90;;;;;;5049880;28;20036;-90
2024/01/19 01:52:31;;;;;;;51.10;48.38;;;-0.60;99.90;;;;;;5064101;28;20040;-91
2024/01/19 01:54:57;;;;;;;57.40;54.75;;;-0.50;99.90;;;;;;5051222;28;20037;-92
2024/01/19 01:57:24;;;;;;;55.00;52.55;;;-0.50;99.90;;;;;;5034655;28;20169;-92
2024/01/19 01:59:51;;;;;;;62.13;59.35;;;-0.50;99.90;;;;;;5034228;28;20091;-91
2024/01/19 02:02:17;;;;;;;59.50;56.90;;;-0.50;99.90;;;;;;5032042;28;20048;-91
2024/01/19 02:04:43;;;;;;;63.10;60.10;;;-0.50;99.90;;;;;;5054867;28;20052;-92
2024/01/19 02:07:09;;;;;;;64.95;61.97;;;-0.50;99.90;;;;;;5055858;28;20469;-90
2024/01/19 02:09:36;;;;;;;71.68;68.50;;;-0.60;99.90;;;;;;5068783;28;20115;-91
2024/01/19 02:12:03;;;;;;;67.32;64.45;;;-0.60;99.90;;;;;;5051685;28;20036;-90
2024/01/19 02:14:29;;;;;;;55.97;53.40;;;-0.50;99.90;;;;;;5050785;28;20500;-91
2024/01/19 02:16:55;;;;;;;62.22;59.30;;;-0.40;99.90;;;;;;5051685;28;20123;-92
2024/01/19 02:19:20;;;;;;;79.53;75.97;;;-0.30;99.90;;;;;;5061834;28;20098;-91
2024/01/19 02:21:53;;;;;;;78.45;74.90;;;-0.20;99.90;;;;;;5045334;28;20017;-91
2024/01/19 02:24:20;;;;;;;80.65;77.20;;;-0.10;99.90;;;;;;5067434;28;20052;-93
2024/01/19 02:26:46;;;;;;;94.32;90.07;;;0.00;99.90;;;;;;5069782;28;20028;-92
2024/01/19 02:29:12;;;;;;;92.28;88.05;;;0.10;99.90;;;;;;5064038;28;20044;-92
2024/01/19 02:31:39;;;;;;;93.85;89.57;;;0.10;99.90;;;;;;5052247;28;20051;-91
2024/01/19 02:34:05;;;;;;;94.20;89.93;;;0.20;99.90;;;;;;5068088;28;20045;-93
2024/01/19 02:36:31;;;;;;;84.88;81.05;;;0.20;99.90;;;;;;5068424;28;20040;-92
2024/01/19 02:38:56;;;;;;;124.38;118.55;;;0.20;99.90;;;;;;5046262;28;20075;-94
2024/01/19 02:41:22;;;;;;;173.23;166.07;;;0.20;99.90;;;;;;5080295;28;20040;-91
2024/01/19 02:43:48;;;;;;;160.20;153.38;;;0.20;99.90;;;;;;5049687;28;20040;-92
2024/01/19 02:46:18;;;;;;;177.38;169.43;;;0.10;99.90;;;;;;5051362;28;20102;-92
2024/01/19 02:48:44;;;;;;;143.13;137.10;;;0.00;99.90;;;;;;5064653;28;20044;-93
2024/01/19 02:51:10;;;;;;;114.38;109.18;;;-0.10;99.90;;;;;;5081736;28;20040;-92
2024/01/19 02:53:35;;;;;;;116.97;111.63;;;-0.20;99.90;;;;;;5054533;28;20047;-92
2024/01/19 02:56:01;;;;;;;98.72;94.10;;;-0.20;99.90;;;;;;5056045;28;20042;-93
2024/01/19 02:58:27;;;;;;;65.93;63.00;;;-0.20;99.90;;;;;;5051729;28;20051;-93
2024/01/19 03:00:54;;;;;;;93.40;89.18;;;-0.30;99.90;;;;;;5055252;28;20099;-93
2024/01/19 03:03:20;;;;;;;99.43;94.88;;;-0.30;99.90;;;;;;5049348;28;20033;-94
2024/01/19 03:05:46;;;;;;;128.95;123.35;;;-0.30;99.90;;;;;;5067744;28;20070;-92
2024/01/19 03:08:15;;;;;;;92.18;87.80;;;-0.30;99.90;;;;;;5053485;28;20425;-93
2024/01/19 03:10:41;;;;;;;87.03;82.68;;;-0.30;99.90;;;;;;5064634;28;20058;-93
2024/01/19 03:13:07;;;;;;;100.95;96.50;;;-0.40;99.90;;;;;;5056719;28;20052;-93
2024/01/19 03:16:00;;;;;;;109.75;104.90;;;-0.40;99.90;;;;;;5072321;28;20028;-93
2024/01/19 03:18:26;;;;;;;174.32;166.60;;;-0.30;99.90;;;;;;4947599;28;20055;-93
2024/01/19 03:20:51;;;;;;;101.40;96.82;;;-0.20;99.90;;;;;;4938596;28;20039;-92
2024/01/19 03:23:17;;;;;;;48.53;45.88;;;0.00;99.90;;;;;;4941311;28;20057;-93
2024/01/19 03:25:42;;;;;;;34.45;32.38;;;0.20;99.90;;;;;;4943657;28;20177;-93
2024/01/19 03:28:08;;;;;;;34.67;32.53;;;0.30;99.90;;;;;;4961235;28;20034;-91
2024/01/19 03:30:34;;;;;;;51.03;48.47;;;0.30;99.90;;;;;;4937590;28;20051;-92
2024/01/19 03:33:00;;;;;;;53.38;50.90;;;0.40;99.90;;;;;;4974531;28;20393;-91
2024/01/19 03:35:25;;;;;;;85.45;81.38;;;0.40;99.90;;;;;;4935527;28;20091;-91
2024/01/19 03:37:51;;;;;;;60.20;57.10;;;0.50;99.90;;;;;;4938629;28;20054;-91
2024/01/19 03:40:17;;;;;;;55.83;52.83;;;0.50;99.90;;;;;;4949775;28;20053;-93
2024/01/19 03:42:42;;;;;;;81.47;77.68;;;0.50;99.90;;;;;;4940418;28;20057;-91
2024/01/19 03:45:08;;;;;;;70.57;67.13;;;0.50;99.90;;;;;;4938494;28;20121;-91
2024/01/19 03:47:34;;;;;;;46.92;44.60;;;0.60;99.90;;;;;;4939865;28;20050;-92
2024/01/19 03:50:01;;;;;;;88.97;84.85;;;0.60;99.90;;;;;;4954473;28;20128;-93
2024/01/19 03:52:27;;;;;;;137.52;131.18;;;0.60;99.90;;;;;;4965244;28;20047;-91
2024/01/19 03:54:52;;;;;;;114.20;109.07;;;0.70;99.90;;;;;;4971968;28;20049;-92
2024/01/19 03:57:18;;;;;;;57.25;54.17;;;0.70;99.90;;;;;;5022816;28;20051;-93
2024/01/19 03:59:44;;;;;;;43.60;41.17;;;0.60;99.90;;;;;;5027412;28;20057;-92
2024/01/19 04:02:11;;;;;;;78.53;75.05;;;0.50;99.90;;;;;;5036721;28;20515;-93
2024/01/19 04:04:37;;;;;;;156.95;150.52;;;0.30;99.90;;;;;;5013246;28;20044;-93
2024/01/19 04:07:03;;;;;;;138.43;132.50;;;0.20;99.90;;;;;;5031957;28;20033;-92
2024/01/19 04:09:31;;;;;;;253.18;242.50;;;0.10;99.90;;;;;;5034835;28;20036;-93
2024/01/19 04:11:56;;;;;;;123.05;117.38;;;0.00;99.90;;;;;;5035178;28;20043;-93
2024/01/19 04:14:25;;;;;;;142.90;136.85;;;-0.10;99.90;;;;;;5066725;28;20072;-93
2024/01/19 04:16:51;;;;;;;106.55;101.90;;;-0.20;99.90;;;;;;5024175;28;20036;-93
2024/01/19 04:19:17;;;;;;;143.43;137.18;;;-0.20;99.90;;;;;;5029267;28;20031;-92
2024/01/19 04:21:43;;;;;;;103.10;98.70;;;-0.40;99.90;;;;;;5052726;28;20037;-92
2024/01/19 04:24:08;;;;;;;76.63;73.15;;;-0.40;99.90;;;;;;5051228;28;20042;-93
2024/01/19 04:26:40;;;;;;;77.72;74.03;;;-0.50;99.90;;;;;;5015718;23;20125;-96
2024/01/19 04:29:11;;;;;;;51.40;49.03;;;-0.60;99.90;;;;;;4996890;28;20050;-96
2024/01/19 04:31:38;;;;;;;23.80;22.40;;;-0.60;99.90;;;;;;5002628;28;20073;-96
2024/01/19 04:34:06;;;;;;;22.45;20.77;;;-0.70;99.90;;;;;;4992788;28;20057;-96
2024/01/19 04:36:33;;;;;;;27.00;25.05;;;-0.80;99.90;;;;;;4999676;28;20045;-96
2024/01/19 04:39:01;;;;;;;29.60;27.27;;;-0.90;99.90;;;;;;5003655;28;20050;-96
2024/01/19 04:41:30;;;;;;;39.90;37.85;;;-0.90;99.90;;;;;;4985807;28;20035;-96
2024/01/19 04:43:59;;;;;;;79.07;75.32;;;-1.00;99.90;;;;;;5024111;28;20120;-96
2024/01/19 04:46:25;;;;;;;52.55;49.85;;;-1.10;99.90;;;;;;4984224;28;20240;-96
2024/01/19 04:48:50;;;;;;;56.85;53.97;;;-1.20;99.90;;;;;;4994923;28;20046;-96
2024/01/19 04:51:47;;;;;;;62.95;59.47;;;-1.20;99.90;;;;;;5014715;28;20057;-96
2024/01/19 04:55:00;;;;;;;52.28;49.47;;;-1.20;99.90;;;;;;5009395;28;20077;-96
2024/01/19 04:57:25;;;;;;;50.65;47.70;;;-1.30;99.90;;;;;;4998625;28;20022;-96
2024/01/19 05:00:11;;;;;;;59.08;55.83;;;-1.40;99.90;;;;;;5114227;23;20517;-96
2024/01/19 05:02:50;;;;;;;46.67;44.00;;;-1.40;99.90;;;;;;5057678;28;20044;-96
2024/01/19 05:05:23;;;;;;;54.13;50.92;;;-1.50;99.90;;;;;;5064789;28;20040;-95
2024/01/19 05:07:49;;;;;;;61.28;58.10;;;-1.50;99.90;;;;;;5061275;28;20025;-96
2024/01/19 05:10:14;;;;;;;51.45;48.42;;;-1.70;99.90;;;;;;5050621;28;20104;-96
2024/01/19 05:12:41;;;;;;;41.95;39.47;;;-1.80;99.90;;;;;;5071841;28;20049;-96
2024/01/19 05:15:08;;;;;;;47.38;45.00;;;-1.80;99.90;;;;;;5039545;28;20076;-95
2024/01/19 05:17:34;;;;;;;43.95;41.90;;;-1.90;99.90;;;;;;5058813;28;20018;-96
2024/01/19 05:19:59;;;;;;;58.38;55.33;;;-1.80;99.90;;;;;;5057163;28;20043;-96
2024/01/19 05:22:25;;;;;;;35.42;33.40;;;-1.80;99.90;;;;;;5038822;28;20052;-96
2024/01/19 05:24:53;;;;;;;35.55;33.15;;;-1.80;99.90;;;;;;5048326;28;20052;-96
2024/01/19 05:27:19;;;;;;;32.58;30.65;;;-1.80;99.90;;;;;;5033880;28;20064;-96
2024/01/19 05:29:46;;;;;;;33.45;31.20;;;-1.70;99.90;;;;;;5060936;28;20097;-96
2024/01/19 05:32:13;;;;;;;36.55;34.50;;;-1.60;99.90;;;;;;5045044;28;20538;-96
2024/01/19 05:34:41;;;;;;;32.03;29.52;;;-1.50;99.90;;;;;;5021560;28;20065;-95
2024/01/19 05:37:08;;;;;;;37.08;35.03;;;-1.50;99.90;;;;;;5029370;28;20056;-96
2024/01/19 05:39:36;;;;;;;39.38;36.55;;;-1.50;99.90;;;;;;5028108;28;20047;-96
2024/01/19 05:42:04;;;;;;;30.25;28.17;;;-1.60;99.90;;;;;;5060955;28;20099;-96
2024/01/19 05:44:34;;;;;;;50.03;46.85;;;-1.60;99.90;;;;;;5042509;28;20044;-96
2024/01/19 05:47:12;;;;;;;31.45;29.23;;;-1.60;99.90;;;;;;5022209;28;20055;-96
2024/01/19 05:49:41;;;;;;;33.60;31.23;;;-1.60;99.90;;;;;;5032537;28;20067;-96
2024/01/19 05:52:09;;;;;;;36.58;34.55;;;-1.60;99.90;;;;;;5039809;28;20043;-96
2024/01/19 05:54:39;;;;;;;43.25;40.30;;;-1.70;99.90;;;;;;5035917;28;20041;-96
2024/01/19 05:57:43;;;;;;;40.17;37.80;;;-1.80;99.90;;;;;;5038505;28;20050;-96
2024/01/19 06:03:19;;;;;;;44.28;41.55;;;-1.80;99.90;;;;;;5050177;28;20040;-96
2024/01/19 06:09:33;;;;;;;119.75;114.05;;;-1.30;99.90;;;;;;5014939;28;20554;-95
2024/01/19 06:12:13;;;;;;;104.72;99.57;;;-1.00;99.90;;;;;;5033515;28;20049;-96
2024/01/19 06:15:18;;;;;;;118.72;112.35;;;-0.70;99.90;;;;;;5038967;28;20048;-96
2024/01/19 06:17:47;;;;;;;95.78;90.95;;;-0.40;99.90;;;;;;5051126;22;20109;-92
2024/01/19 06:20:12;;;;;;;96.20;91.47;;;-0.30;99.90;;;;;;5044319;28;20076;-92
2024/01/19 06:22:38;;;;;;;97.95;92.82;;;-0.20;99.90;;;;;;5035954;28;20067;-92
2024/01/19 06:25:04;;;;;;;121.65;115.65;;;-0.10;99.90;;;;;;5032645;28;20435;-91
2024/01/19 06:27:30;;;;;;;110.50;105.10;;;-0.10;99.90;;;;;;5067726;28;20052;-92
2024/01/19 06:29:56;;;;;;;112.40;107.13;;;-0.20;99.90;;;;;;5051275;28;20498;-91
2024/01/19 06:32:22;;;;;;;100.10;94.90;;;-0.30;99.90;;;;;;5043965;28;20127;-92
2024/01/19 06:34:48;;;;;;;98.07;93.60;;;-0.40;99.90;;;;;;5079540;28;20070;-92
2024/01/19 06:37:14;;;;;;;75.45;71.28;;;-0.50;99.90;;;;;;5075285;28;20083;-92
2024/01/19 06:39:40;;;;;;;34.25;31.35;;;-0.70;99.90;;;;;;5041824;28;20566;-92
2024/01/19 06:42:06;;;;;;;46.97;43.63;;;-0.80;99.90;;;;;;5035064;28;20075;-92
2024/01/19 06:44:31;;;;;;;103.32;98.20;;;-0.90;99.90;;;;;;5053222;28;20033;-93
2024/01/19 06:46:57;;;;;;;245.88;235.07;;;-1.10;99.90;;;;;;5052008;28;20497;-92
2024/01/19 06:49:23;;;;;;;126.68;120.22;;;-1.20;99.90;;;;;;5030239;28;20040;-93
2024/01/19 06:51:49;;;;;;;118.35;113.15;;;-1.30;99.90;;;;;;5036240;28;20033;-92
2024/01/19 06:54:15;;;;;;;153.38;146.13;;;-1.40;99.90;;;;;;5033371;28;20044;-92
2024/01/19 06:56:40;;;;;;;99.30;94.53;;;-1.40;99.90;;;;;;5029539;28;20203;-92
2024/01/19 06:59:06;;;;;;;152.93;146.10;;;-1.40;99.90;;;;;;5049498;28;20055;-91
2024/01/19 07:01:33;;;;;;;158.45;151.18;;;-1.40;99.90;;;;;;5031425;28;20045;-92
2024/01/19 07:03:59;;;;;;;157.80;150.02;;;-1.40;99.90;;;;;;5046116;28;20087;-92
2024/01/19 07:06:25;;;;;;;153.82;147.18;;;-1.40;99.90;;;;;;5030158;28;20036;-91
2024/01/19 07:08:51;;;;;;;132.25;126.05;;;-1.40;99.90;;;;;;5069012;28;20041;-90
2024/01/19 07:11:16;;;;;;;154.07;146.98;;;-1.40;99.90;;;;;;5039349;28;20048;-92
2024/01/19 07:13:42;;;;;;;134.95;129.15;;;-1.40;99.90;;;;;;5055049;28;20036;-92
2024/01/19 07:16:08;;;;;;;156.02;149.18;;;-1.40;99.90;;;;;;5048137;28;20046;-91
2024/01/19 07:18:37;;;;;;;152.57;145.70;;;-1.40;99.90;;;;;;5051836;28;20088;-92
2024/01/19 07:21:03;;;;;;;149.95;142.60;;;-1.40;99.90;;;;;;5071785;28;20119;-91
2024/01/19 07:23:29;;;;;;;161.80;154.35;;;-1.40;99.90;;;;;;5053342;28;20097;-91
2024/01/19 07:25:54;;;;;;;135.75;129.48;;;-1.40;99.90;;;;;;5032078;28;20041;-91
2024/01/19 07:28:20;;;;;;;136.13;129.27;;;-1.40;99.90;;;;;;5054924;28;20040;-91
2024/01/19 07:30:46;;;;;;;122.07;116.70;;;-1.40;99.90;;;;;;5032517;28;20127;-91
2024/01/19 07:33:11;;;;;;;118.05;112.20;;;-1.40;99.90;;;;;;5045386;28;20033;-91
2024/01/19 07:35:38;;;;;;;92.78;87.93;;;-1.40;99.90;;;;;;5038052;28;20058;-91
2024/01/19 07:38:04;;;;;;;77.88;73.88;;;-1.40;99.90;;;;;;5034409;28;20040;-92
2024/01/19 07:40:29;;;;;;;97.60;92.45;;;-1.50;99.90;;;;;;5051446;28;20579;-91
2024/01/19 07:42:55;;;;;;;104.80;99.53;;;-1.40;99.90;;;;;;5054615;28;20044;-90
2024/01/19 07:45:21;;;;;;;72.38;68.95;;;-1.40;99.90;;;;;;5036666;28;20040;-91
2024/01/19 07:47:46;;;;;;;100.95;96.25;;;-1.40;99.90;;;;;;5034147;28;20037;-89
2024/01/19 07:50:12;;;;;;;101.57;96.53;;;-1.30;99.90;;;;;;5031713;28;20095;-91
2024/01/19 07:52:39;;;;;;;127.82;122.05;;;-1.30;99.90;;;;;;5037629;28;20033;-90
2024/01/19 07:55:05;;;;;;;135.88;129.50;;;-1.30;99.90;;;;;;5069107;28;20049;-91
2024/01/19 07:57:31;;;;;;;141.13;134.73;;;-1.20;99.90;;;;;;5032842;28;20466;-91
2024/01/19 07:59:56;;;;;;;113.70;108.22;;;-1.10;99.90;;;;;;5037828;28;20127;-89
2024/01/19 08:02:22;;;;;;;166.57;159.63;;;-1.00;99.90;;;;;;5054073;28;20505;-91
2024/01/19 08:04:48;;;;;;;112.15;107.10;;;-1.00;99.90;;;;;;5053597;28;20048;-89
2024/01/19 08:07:13;;;;;;;163.48;156.35;;;-0.90;99.90;;;;;;5051321;28;20517;-91
2024/01/19 08:09:39;;;;;;;100.63;95.85;;;-0.90;99.90;;;;;;5036852;28;20063;-90
2024/01/19 08:12:06;;;;;;;119.32;113.95;;;-0.90;99.90;;;;;;5049198;28;20069;-91
2024/01/19 08:14:31;;;;;;;119.07;113.28;;;-0.90;99.90;;;;;;5067325;28;20492;-90
2024/01/19 08:16:57;;;;;;;107.53;102.60;;;-0.90;99.90;;;;;;5033897;28;20052;-90
2024/01/19 08:19:23;;;;;;;133.77;127.78;;;-0.80;99.90;;;;;;5036509;28;20080;-90
2024/01/19 08:21:49;;;;;;;103.32;98.35;;;-0.80;99.90;;;;;;5029305;28;20068;-91
2024/01/19 08:24:14;;;;;;;101.70;97.22;;;-0.80;99.90;;;;;;5036791;28;20408;-91
2024/01/19 08:26:40;;;;;;;98.93;93.53;;;-0.70;99.90;;;;;;5050006;28;20053;-91
2024/01/19 08:29:06;;;;;;;75.97;71.97;;;-0.50;99.90;;;;;;5033680;28;20037;-90
2024/01/19 08:31:31;;;;;;;64.03;60.10;;;-0.40;99.90;;;;;;5068290;28;20044;-91
2024/01/19 08:33:57;;;;;;;57.80;54.60;;;-0.30;99.90;;;;;;5044343;28;20130;-90
2024/01/19 08:36:24;;;;;;;48.50;45.90;;;-0.30;99.90;;;;;;5025957;28;20040;-90
2024/01/19 08:38:53;;;;;;;58.28;54.97;;;-0.30;99.90;;;;;;5048246;28;20037;-91
2024/01/19 08:41:20;;;;;;;91.10;86.93;;;-0.20;99.90;;;;;;5049364;28;20032;-92
2024/01/19 08:43:45;;;;;;;137.68;131.43;;;0.00;99.90;;;;;;5037261;28;20047;-90
2024/01/19 08:46:14;;;;;;;152.13;145.32;;;0.10;99.90;;;;;;5040342;28;20045;-90
2024/01/19 08:48:42;;;;;;;165.55;158.27;;;0.20;99.90;;;;;;5070898;28;20140;-90
2024/01/19 08:51:08;;;;;;;152.80;146.10;;;0.20;99.90;;;;;;5038279;28;20033;-90
2024/01/19 08:53:33;;;;;;;150.73;144.00;;;0.30;99.90;;;;;;5052807;28;20046;-90
2024/01/19 08:55:59;;;;;;;108.63;103.13;;;0.40;99.90;;;;;;5054134;28;20044;-91
2024/01/19 08:58:25;;;;;;;110.80;105.57;;;0.50;99.90;;;;;;5041487;28;20041;-91
2024/01/19 09:00:51;;;;;;;136.40;130.35;;;0.60;99.90;;;;;;5034205;28;20127;-90
2024/01/19 09:03:17;;;;;;;112.40;107.47;;;0.70;99.90;;;;;;5049861;28;20025;-89
2024/01/19 09:05:42;;;;;;;79.50;74.95;;;0.70;99.90;;;;;;5031824;28;20083;-91
2024/01/19 09:08:08;;;;;;;89.63;85.03;;;0.80;99.90;;;;;;5034010;28;21284;-89
2024/01/19 09:10:34;;;;;;;126.88;121.13;;;0.90;99.90;;;;;;5029729;28;20064;-90
2024/01/19 09:12:59;;;;;;;145.65;139.32;;;0.90;99.90;;;;;;5027068;28;20532;-89
2024/01/19 09:15:25;;;;;;;149.70;142.50;;;0.90;99.90;;;;;;5065698;28;20077;-89
2024/01/19 09:17:51;;;;;;;63.15;59.90;;;1.00;99.90;;;;;;5061442;28;20062;-87
2024/01/19 09:20:16;;;;;;;33.22;30.90;;;1.00;99.90;;;;;;5063497;28;20143;-89
2024/01/19 09:22:43;;;;;;;32.67;30.45;;;1.10;99.90;;;;;;5027756;28;20823;-93
2024/01/19 09:25:11;;;;;;;27.92;25.75;;;1.10;99.90;;;;;;5047748;28;20036;-89
2024/01/19 09:27:37;;;;;;;41.65;39.05;;;1.20;99.90;;;;;;5046325;28;20080;-89
2024/01/19 09:30:03;;;;;;;109.38;104.47;;;1.30;99.90;;;;;;5029678;28;20072;-90
2024/01/19 09:32:28;;;;;;;105.15;100.55;;;1.30;99.90;;;;;;5031172;28;20033;-89
2024/01/19 09:34:54;;;;;;;91.47;86.95;;;1.40;99.90;;;;;;5047328;28;20401;-91
2024/01/19 09:37:19;;;;;;;66.60;63.20;;;1.50;99.90;;;;;;5038210;28;20047;-89
2024/01/19 09:39:45;;;;;;;73.07;69.45;;;1.50;99.90;;;;;;5044239;28;20160;-89
2024/01/19 09:42:34;;;;;;;62.50;58.72;;;1.60;99.90;;;;;;5044607;28;20076;-88
2024/01/19 09:45:03;;;;;;;49.08;46.42;;;1.70;99.90;;;;;;5059364;28;20045;-88
2024/01/19 09:47:39;;;;;;;43.45;40.58;;;1.80;99.90;;;;;;5027855;28;20085;-89
2024/01/19 09:50:06;;;;;;;113.85;108.55;;;1.80;99.90;;;;;;5025050;28;20124;-88
2024/01/19 09:52:45;;;;;;;115.97;110.60;;;1.90;99.90;;;;;;5036956;28;20528;-89
2024/01/19 09:55:11;;;;;;;105.18;99.90;;;2.00;99.90;;;;;;5045504;28;20110;-88
2024/01/19 09:57:45;;;;;;;97.53;92.50;;;2.10;99.90;;;;;;5032023;28;20076;-88
2024/01/19 10:00:16;;;;;;;45.90;43.22;;;2.20;99.90;;;;;;5048542;28;20049;-90
2024/01/19 10:02:44;;;;;;;41.10;38.78;;;2.40;99.90;;;;;;5062451;28;20037;-88
2024/01/19 10:05:14;;;;;;;57.85;54.72;;;2.50;99.90;;;;;;5032291;28;20045;-89
2024/01/19 10:07:48;;;;;;;98.30;93.70;;;2.70;99.90;;;;;;5048467;28;20040;-87
2024/01/19 10:10:15;;;;;;;66.63;62.78;;;2.90;99.90;;;;;;5030803;28;20036;-89
2024/01/19 10:12:42;;;;;;;57.80;54.25;;;3.00;99.90;;;;;;5061915;28;20287;-88
2024/01/19 10:15:16;;;;;;;62.05;58.78;;;3.10;99.90;;;;;;5048802;28;20036;-87
2024/01/19 10:17:44;;;;;;;68.63;65.38;;;3.20;99.90;;;;;;5033334;28;20094;-87
2024/01/19 10:20:13;;;;;;;50.13;47.00;;;3.40;99.90;;;;;;5029160;28;20080;-89
2024/01/19 10:22:39;;;;;;;39.20;36.63;;;3.40;99.90;;;;;;5031981;28;20040;-90
2024/01/19 10:25:23;;;;;;;51.47;48.08;;;3.40;99.90;;;;;;5040992;28;20134;-88
2024/01/19 10:27:54;;;;;;;35.13;32.67;;;3.50;99.90;;;;;;5030597;28;20043;-90
2024/01/19 10:30:25;;;;;;;51.53;48.65;;;3.60;99.90;;;;;;5046385;28;20048;-88
2024/01/19 10:32:52;;;;;;;47.42;44.50;;;3.70;99.90;;;;;;5030523;28;20516;-87
2024/01/19 10:35:22;;;;;;;38.60;36.05;;;3.80;99.90;;;;;;5047740;28;20404;-86
2024/01/19 10:37:49;;;;;;;25.50;23.73;;;3.90;99.90;;;;;;5040021;28;20056;-88
2024/01/19 10:40:15;;;;;;;35.20;32.90;;;3.90;99.90;;;;;;5048401;28;20498;-87
2024/01/19 10:42:42;;;;;;;47.97;45.45;;;4.00;99.90;;;;;;5025993;28;20054;-88
2024/01/19 10:45:23;;;;;;;52.92;49.83;;;4.10;99.90;;;;;;5048036;28;20037;-88
2024/01/19 10:47:53;;;;;;;37.40;35.03;;;4.20;99.90;;;;;;5068827;28;20033;-89
2024/01/19 10:50:21;;;;;;;46.28;43.40;;;4.20;99.90;;;;;;5071855;28;20040;-88
2024/01/19 10:52:51;;;;;;;32.90;30.70;;;4.20;99.90;;;;;;5049168;28;20037;-88
2024/01/19 10:55:21;;;;;;;33.70;31.50;;;4.30;99.90;;;;;;5053513;28;20439;-87
2024/01/19 10:57:52;;;;;;;29.60;27.40;;;4.30;99.90;;;;;;5052439;28;20491;-88
2024/01/19 11:00:23;;;;;;;26.30;24.30;;;4.40;99.90;;;;;;5036765;28;20343;-88
2024/01/19 11:03:02;;;;;;;26.27;24.35;;;4.50;99.90;;;;;;5033730;28;20041;-88
2024/01/19 11:05:29;;;;;;;23.08;21.40;;;4.50;99.90;;;;;;5048257;28;20133;-87
2024/01/19 11:07:57;;;;;;;20.83;18.58;;;4.60;99.90;;;;;;5034511;28;20040;-87
2024/01/19 11:10:27;;;;;;;24.52;22.85;;;4.80;99.90;;;;;;5045539;28;20048;-86
2024/01/19 11:12:59;;;;;;;20.90;19.27;;;4.90;99.90;;;;;;5046319;28;20052;-88
2024/01/19 11:15:35;;;;;;;29.13;27.00;;;5.10;99.90;;;;;;5051339;28;20040;-87
2024/01/19 11:18:03;;;;;;;51.05;48.13;;;5.20;99.90;;;;;;5064126;28;20056;-85
2024/01/19 11:20:32;;;;;;;49.72;46.92;;;5.20;99.90;;;;;;5066707;28;20040;-85
2024/01/19 11:22:59;;;;;;;72.32;68.30;;;5.20;99.90;;;;;;5053060;28;20047;-85
2024/01/19 11:25:51;;;;;;;84.10;80.32;;;5.20;99.90;;;;;;5046882;28;20036;-86
2024/01/19 11:28:37;;;;;;;91.38;86.93;;;5.20;99.90;;;;;;5030220;28;20045;-89
2024/01/19 11:31:16;;;;;;;85.38;81.10;;;5.20;99.90;;;;;;5047893;28;20040;-86
2024/01/19 11:33:42;;;;;;;99.45;94.43;;;5.20;99.90;;;;;;5052864;28;20032;-86
2024/01/19 11:36:08;;;;;;;101.97;96.57;;;5.30;99.90;;;;;;5050423;28;20382;-86
2024/01/19 11:38:44;;;;;;;194.98;185.18;;;5.40;99.90;;;;;;5054711;28;20033;-89
2024/01/19 11:41:30;;;;;;;113.65;108.10;;;5.50;99.90;;;;;;5053219;28;20151;-90
2024/01/19 11:44:00;;;;;;;90.90;86.22;;;5.50;99.90;;;;;;5037420;28;20131;-88
2024/01/19 11:46:45;;;;;;;59.63;56.45;;;5.50;99.90;;;;;;5050562;28;20036;-88
2024/01/19 11:49:29;;;;;;;114.57;108.78;;;5.60;99.90;;;;;;5029248;28;20048;-86
2024/01/19 11:52:00;;;;;;;40.75;38.40;;;5.60;99.90;;;;;;5050577;28;20043;-87
2024/01/19 11:54:32;;;;;;;141.85;135.07;;;5.60;99.90;;;;;;5033255;28;20412;-87
2024/01/19 11:57:25;;;;;;;77.25;73.55;;;5.60;99.90;;;;;;5027109;28;20183;-88
2024/01/19 11:59:52;;;;;;;62.05;58.50;;;5.60;99.90;;;;;;5056731;28;20048;-89
2024/01/19 12:02:30;;;;;;;141.38;133.00;;;5.60;99.90;;;;;;5025292;28;20161;-90
2024/01/19 12:05:09;;;;;;;55.33;52.22;;;5.60;99.90;;;;;;5068791;28;20036;-89
2024/01/19 12:07:35;;;;;;;49.28;46.50;;;5.50;99.90;;;;;;5066335;28;20116;-89
2024/01/19 12:10:27;;;;;;;49.70;46.72;;;5.50;99.90;;;;;;5035375;28;20442;-88
2024/01/19 12:12:53;;;;;;;53.67;50.78;;;5.50;99.90;;;;;;5036638;28;20036;-90
2024/01/19 12:15:19;;;;;;;43.55;41.03;;;5.60;99.90;;;;;;5028091;28;20045;-89
2024/01/19 12:17:45;;;;;;;39.60;37.30;;;5.50;99.90;;;;;;5030424;28;20374;-92
2024/01/19 12:20:15;;;;;;;66.13;62.25;;;5.50;99.90;;;;;;5036540;28;20568;-92
2024/01/19 12:22:44;;;;;;;77.28;72.63;;;5.60;99.90;;;;;;5048603;28;20032;-92
2024/01/19 12:25:16;;;;;;;49.05;46.42;;;5.60;99.90;;;;;;5068459;28;20040;-92
2024/01/19 12:27:42;;;;;;;95.53;90.15;;;5.60;99.90;;;;;;5063844;28;20212;-92
2024/01/19 12:30:13;;;;;;;64.57;61.35;;;5.50;99.90;;;;;;5043742;28;20067;-95
2024/01/19 12:32:39;;;;;;;46.40;43.53;;;5.60;99.90;;;;;;5052955;28;20055;-90
2024/01/19 12:35:05;;;;;;;129.68;122.25;;;5.50;99.90;;;;;;5048987;28;20040;-93
2024/01/19 12:37:31;;;;;;;70.40;66.80;;;5.50;99.90;;;;;;5056239;28;20096;-95